Time;durP1;ratioP1;P1;durP2;ratioP2;P2;SDS_P1;SDS_P2;PMS_P1;PMS_P2;Temp;Humidity;BMP_temperature;BMP_pressure;BME280_temperature;BME280_humidity;BME280_pressure;Samples;Min_cycle;Max_cycle;Signal;HPM_P1;HPM_P2
2024/01/05 00:00:44;;;;;;;10.10;3.90;;;;;;;;;;5110975;28;20241;-79
2024/01/05 00:03:11;;;;;;;8.67;4.70;;;;;;;;;;5111486;28;20222;-80
2024/01/05 00:05:40;;;;;;;7.43;4.43;;;;;;;;;;5111644;28;20197;-79
2024/01/05 00:08:07;;;;;;;7.87;4.20;;;;;;;;;;5111471;28;20200;-79
2024/01/05 00:10:35;;;;;;;7.60;4.40;;;;;;;;;;5110177;28;20190;-79
2024/01/05 00:13:02;;;;;;;7.07;4.73;;;;;;;;;;5111554;28;20220;-79
2024/01/05 00:15:29;;;;;;;9.03;5.00;;;;;;;;;;5111297;28;20228;-79
2024/01/05 00:17:56;;;;;;;9.37;5.07;;;;;;;;;;5111390;28;20213;-79
2024/01/05 00:20:23;;;;;;;6.57;5.00;;;;;;;;;;5111243;28;20239;-79
2024/01/05 00:22:52;;;;;;;8.60;5.30;;;;;;;;;;5111226;28;20285;-80
2024/01/05 00:25:21;;;;;;;9.80;5.50;;;;;;;;;;5110546;28;20253;-79
2024/01/05 00:27:48;;;;;;;7.40;4.47;;;;;;;;;;5111051;28;20194;-79
2024/01/05 00:30:16;;;;;;;6.83;4.30;;;;;;;;;;5111655;28;20277;-80
2024/01/05 00:32:43;;;;;;;8.70;3.93;;;;;;;;;;5112774;28;20196;-78
2024/01/05 00:35:10;;;;;;;5.67;3.30;;;;;;;;;;5114709;28;20309;-79
2024/01/05 00:37:37;;;;;;;4.87;3.10;;;;;;;;;;5114654;28;20688;-80
2024/01/05 00:40:07;;;;;;;8.90;3.00;;;;;;;;;;5114537;28;20205;-79
2024/01/05 00:42:34;;;;;;;6.10;2.50;;;;;;;;;;5114576;28;20289;-79
2024/01/05 00:45:01;;;;;;;3.87;2.20;;;;;;;;;;5114438;28;20329;-79
2024/01/05 00:47:29;;;;;;;4.13;1.63;;;;;;;;;;5114655;28;20221;-78
2024/01/05 00:49:56;;;;;;;5.00;1.80;;;;;;;;;;5114787;28;20197;-79
2024/01/05 00:52:23;;;;;;;4.87;1.57;;;;;;;;;;5114604;28;20654;-79
2024/01/05 00:54:50;;;;;;;3.03;1.50;;;;;;;;;;5114354;28;20305;-79
2024/01/05 00:57:19;;;;;;;6.87;1.50;;;;;;;;;;5113546;28;20666;-79
2024/01/05 00:59:46;;;;;;;6.43;1.70;;;;;;;;;;5114021;28;20689;-78
2024/01/05 01:02:13;;;;;;;4.33;1.53;;;;;;;;;;5114463;28;20749;-79
2024/01/05 01:04:40;;;;;;;2.73;1.50;;;;;;;;;;5114294;28;20312;-79
2024/01/05 01:07:08;;;;;;;7.93;2.07;;;;;;;;;;5114271;28;20286;-79
2024/01/05 01:09:35;;;;;;;7.27;2.70;;;;;;;;;;5113530;28;20189;-79
2024/01/05 01:12:02;;;;;;;5.60;2.03;;;;;;;;;;5113695;28;20639;-79
2024/01/05 01:14:31;;;;;;;4.53;1.70;;;;;;;;;;5113925;28;20670;-79
2024/01/05 01:16:58;;;;;;;4.33;1.93;;;;;;;;;;5114419;28;20243;-80
2024/01/05 01:19:25;;;;;;;4.23;1.60;;;;;;;;;;5114151;28;20631;-79
2024/01/05 01:21:52;;;;;;;3.60;1.60;;;;;;;;;;5114117;28;20224;-79
2024/01/05 01:24:20;;;;;;;6.80;1.80;;;;;;;;;;5113961;28;20272;-78
2024/01/05 01:26:47;;;;;;;7.67;2.00;;;;;;;;;;5113898;28;20267;-79
2024/01/05 01:29:14;;;;;;;6.00;1.80;;;;;;;;;;5113606;28;20221;-79
2024/01/05 01:31:43;;;;;;;5.30;1.80;;;;;;;;;;5113543;28;20245;-79
2024/01/05 01:34:10;;;;;;;5.27;1.50;;;;;;;;;;5113487;28;20225;-79
2024/01/05 01:36:37;;;;;;;5.23;1.70;;;;;;;;;;5113741;28;21004;-79
2024/01/05 01:39:05;;;;;;;9.90;2.07;;;;;;;;;;5113744;28;20284;-79
2024/01/05 01:41:32;;;;;;;5.23;2.40;;;;;;;;;;5114060;28;20193;-79
2024/01/05 01:44:00;;;;;;;6.83;2.30;;;;;;;;;;5112927;28;20316;-79
2024/01/05 01:46:28;;;;;;;5.20;2.17;;;;;;;;;;5113622;28;20232;-79
2024/01/05 01:48:57;;;;;;;5.33;2.30;;;;;;;;;;5113309;28;20194;-79
2024/01/05 01:51:24;;;;;;;6.90;2.50;;;;;;;;;;5113601;28;20293;-80
2024/01/05 01:53:52;;;;;;;8.50;2.63;;;;;;;;;;5113583;28;20616;-79
2024/01/05 01:56:20;;;;;;;5.97;2.53;;;;;;;;;;5113487;28;20194;-79
2024/01/05 01:58:47;;;;;;;6.87;2.93;;;;;;;;;;5113175;28;20189;-79
2024/01/05 02:01:14;;;;;;;3.40;2.30;;;;;;;;;;5112912;28;20264;-80
2024/01/05 02:03:41;;;;;;;6.77;2.60;;;;;;;;;;5112946;28;20227;-80
2024/01/05 02:06:10;;;;;;;6.07;3.07;;;;;;;;;;5112879;28;20225;-79
2024/01/05 02:08:38;;;;;;;7.37;3.30;;;;;;;;;;5113063;28;20296;-79
2024/01/05 02:11:05;;;;;;;7.67;3.30;;;;;;;;;;5113092;28;20194;-78
2024/01/05 02:13:34;;;;;;;6.77;3.43;;;;;;;;;;5113457;28;20200;-79
2024/01/05 02:16:01;;;;;;;10.47;3.40;;;;;;;;;;5111540;28;20235;-79
2024/01/05 02:18:28;;;;;;;8.30;3.60;;;;;;;;;;5113010;28;20194;-79
2024/01/05 02:20:56;;;;;;;7.77;3.60;;;;;;;;;;5112646;28;20193;-78
2024/01/05 02:23:25;;;;;;;8.30;4.00;;;;;;;;;;5113124;28;20218;-79
2024/01/05 02:25:53;;;;;;;9.30;4.47;;;;;;;;;;5112617;28;20320;-79
2024/01/05 02:28:21;;;;;;;7.90;4.60;;;;;;;;;;5112528;28;20193;-79
2024/01/05 02:30:48;;;;;;;8.30;4.80;;;;;;;;;;5112863;28;20201;-80
2024/01/05 02:33:15;;;;;;;8.87;5.20;;;;;;;;;;5112182;28;20198;-79
2024/01/05 02:35:43;;;;;;;8.33;4.87;;;;;;;;;;5112121;28;20201;-78
2024/01/05 02:38:10;;;;;;;11.93;4.63;;;;;;;;;;5112442;28;20224;-79
2024/01/05 02:40:39;;;;;;;7.60;4.90;;;;;;;;;;5112404;28;20284;-80
2024/01/05 02:43:06;;;;;;;9.40;5.10;;;;;;;;;;5112334;28;20221;-79
2024/01/05 02:45:34;;;;;;;10.60;4.77;;;;;;;;;;5112556;28;20647;-78
2024/01/05 02:48:01;;;;;;;8.43;4.90;;;;;;;;;;5112516;28;20261;-79
2024/01/05 02:50:28;;;;;;;11.50;4.80;;;;;;;;;;5111905;28;20696;-79
2024/01/05 02:52:56;;;;;;;9.53;4.50;;;;;;;;;;5112713;28;20667;-79
2024/01/05 02:55:23;;;;;;;8.23;4.73;;;;;;;;;;5111413;28;20236;-79
2024/01/05 02:57:51;;;;;;;9.47;5.07;;;;;;;;;;5111956;28;20247;-79
2024/01/05 03:00:19;;;;;;;9.13;4.90;;;;;;;;;;5111845;28;20316;-78
2024/01/05 03:02:46;;;;;;;10.37;5.70;;;;;;;;;;5112207;28;20680;-79
2024/01/05 03:05:13;;;;;;;8.00;4.50;;;;;;;;;;5111425;28;20317;-78
2024/01/05 03:07:40;;;;;;;9.70;5.70;;;;;;;;;;5111822;28;20619;-79
2024/01/05 03:10:08;;;;;;;9.93;6.20;;;;;;;;;;5110410;28;20204;-79
2024/01/05 03:12:35;;;;;;;11.57;5.70;;;;;;;;;;5091704;28;20229;-78
2024/01/05 03:15:04;;;;;;;6.97;5.20;;;;;;;;;;5091528;28;20316;-79
2024/01/05 03:17:31;;;;;;;8.80;4.30;;;;;;;;;;5091776;28;20222;-79
2024/01/05 03:19:59;;;;;;;7.40;3.83;;;;;;;;;;5091648;28;20222;-78
2024/01/05 03:22:26;;;;;;;7.77;3.70;;;;;;;;;;5091550;28;20205;-80
2024/01/05 03:24:53;;;;;;;6.33;3.50;;;;;;;;;;5091308;28;20242;-79
2024/01/05 03:27:20;;;;;;;7.13;3.97;;;;;;;;;;5091247;28;20222;-78
2024/01/05 03:29:47;;;;;;;9.07;4.10;;;;;;;;;;5091071;28;20306;-79
2024/01/05 03:32:16;;;;;;;9.57;4.30;;;;;;;;;;5091482;28;20214;-79
2024/01/05 03:34:43;;;;;;;8.17;4.20;;;;;;;;;;5090759;28;20292;-79
2024/01/05 03:37:10;;;;;;;9.57;4.23;;;;;;;;;;5107372;28;20284;-79
2024/01/05 03:39:37;;;;;;;8.00;3.80;;;;;;;;;;5111442;28;20280;-79
2024/01/05 03:42:04;;;;;;;7.53;3.53;;;;;;;;;;5111528;28;20194;-79
2024/01/05 03:44:32;;;;;;;11.13;5.37;;;;;;;;;;5111258;28;20217;-78
2024/01/05 03:46:59;;;;;;;14.17;4.60;;;;;;;;;;5111860;28;20281;-79
2024/01/05 03:49:27;;;;;;;8.00;3.80;;;;;;;;;;5111340;28;20197;-79
2024/01/05 03:51:54;;;;;;;8.03;3.27;;;;;;;;;;5111311;28;20220;-79
2024/01/05 03:54:22;;;;;;;8.67;2.97;;;;;;;;;;5111790;28;20222;-79
2024/01/05 03:56:49;;;;;;;8.73;2.97;;;;;;;;;;5111884;28;20305;-79
2024/01/05 03:59:16;;;;;;;7.33;3.00;;;;;;;;;;5111492;28;20709;-79
2024/01/05 04:01:44;;;;;;;9.30;2.70;;;;;;;;;;5111471;28;20280;-79
2024/01/05 04:04:11;;;;;;;6.73;2.37;;;;;;;;;;5111181;28;20190;-78
2024/01/05 04:06:40;;;;;;;6.17;2.73;;;;;;;;;;5111478;28;20324;-79
2024/01/05 04:09:09;;;;;;;10.07;2.93;;;;;;;;;;5115124;28;20190;-80
2024/01/05 04:11:37;;;;;;;8.77;3.30;;;;;;;;;;5115131;28;20288;-79
2024/01/05 04:14:04;;;;;;;7.67;3.03;;;;;;;;;;5115351;28;20200;-79
2024/01/05 04:16:31;;;;;;;11.67;3.07;;;;;;;;;;5114922;28;20635;-79
2024/01/05 04:18:58;;;;;;;8.43;2.83;;;;;;;;;;5115778;28;20288;-79
2024/01/05 04:21:26;;;;;;;9.03;3.03;;;;;;;;;;5115214;28;20288;-79
2024/01/05 04:23:55;;;;;;;11.97;3.00;;;;;;;;;;5114840;28;20204;-79
2024/01/05 04:26:22;;;;;;;5.87;2.77;;;;;;;;;;5114972;28;20229;-79
2024/01/05 04:28:49;;;;;;;7.67;2.77;;;;;;;;;;5114810;28;20280;-78
2024/01/05 04:31:17;;;;;;;6.93;2.80;;;;;;;;;;5114724;28;20289;-79
2024/01/05 04:33:44;;;;;;;7.20;2.87;;;;;;;;;;5114780;28;20214;-79
2024/01/05 04:36:15;;;;;;;7.87;2.80;;;;;;;;;;5114725;28;20773;-80
2024/01/05 04:38:42;;;;;;;5.83;2.80;;;;;;;;;;5115060;28;20236;-78
2024/01/05 04:41:11;;;;;;;8.13;3.20;;;;;;;;;;5114786;28;20231;-79
2024/01/05 04:43:38;;;;;;;9.20;2.60;;;;;;;;;;5114675;28;20273;-79
2024/01/05 04:46:05;;;;;;;7.03;2.60;;;;;;;;;;5114725;28;20308;-79
2024/01/05 04:48:33;;;;;;;6.47;3.07;;;;;;;;;;5114742;28;20197;-79
2024/01/05 04:51:00;;;;;;;7.23;2.80;;;;;;;;;;5114295;28;20197;-79
2024/01/05 04:53:27;;;;;;;13.07;3.27;;;;;;;;;;5114574;28;20273;-79
2024/01/05 04:55:54;;;;;;;8.73;3.30;;;;;;;;;;5114878;28;20644;-79
2024/01/05 04:58:24;;;;;;;7.97;2.70;;;;;;;;;;5114786;28;20288;-79
2024/01/05 05:00:52;;;;;;;10.57;3.60;;;;;;;;;;5114171;28;20320;-79
2024/01/05 05:03:19;;;;;;;6.70;2.97;;;;;;;;;;5114178;28;20692;-78
2024/01/05 05:05:46;;;;;;;7.70;3.10;;;;;;;;;;5114364;28;20294;-78
2024/01/05 05:08:14;;;;;;;7.77;2.83;;;;;;;;;;5114472;28;20217;-79
2024/01/05 05:10:42;;;;;;;6.27;3.37;;;;;;;;;;5114719;28;20627;-79
2024/01/05 05:13:10;;;;;;;8.00;3.30;;;;;;;;;;5114051;28;20202;-79
2024/01/05 05:15:39;;;;;;;6.73;3.37;;;;;;;;;;5114467;28;20280;-79
2024/01/05 05:18:06;;;;;;;9.03;3.90;;;;;;;;;;5114202;28;20193;-79
2024/01/05 05:20:33;;;;;;;8.97;4.00;;;;;;;;;;5113203;28;20190;-79
2024/01/05 05:23:00;;;;;;;9.87;3.97;;;;;;;;;;5113971;28;20288;-79
2024/01/05 05:25:27;;;;;;;8.90;4.00;;;;;;;;;;5113998;28;20286;-80
2024/01/05 05:27:54;;;;;;;11.17;4.07;;;;;;;;;;5113629;28;20697;-79
2024/01/05 05:30:22;;;;;;;9.20;4.50;;;;;;;;;;5113616;28;20199;-79
2024/01/05 05:32:50;;;;;;;8.10;4.00;;;;;;;;;;5113073;28;20281;-79
2024/01/05 05:35:17;;;;;;;10.47;5.00;;;;;;;;;;5113516;28;20229;-79
2024/01/05 05:37:44;;;;;;;12.50;4.97;;;;;;;;;;5113452;28;20763;-79
2024/01/05 05:40:13;;;;;;;10.07;4.77;;;;;;;;;;5113580;28;20197;-79
2024/01/05 05:42:40;;;;;;;10.77;4.87;;;;;;;;;;5113120;28;20194;-78
2024/01/05 05:45:08;;;;;;;10.07;4.90;;;;;;;;;;5113218;28;20225;-79
2024/01/05 05:47:35;;;;;;;7.93;4.80;;;;;;;;;;5107752;28;20230;-80
2024/01/05 05:50:05;;;;;;;12.80;5.40;;;;;;;;;;5094163;28;20293;-79
2024/01/05 05:52:33;;;;;;;8.93;5.00;;;;;;;;;;5113563;28;20201;-80
2024/01/05 05:55:00;;;;;;;8.73;5.27;;;;;;;;;;5108002;28;20206;-79
2024/01/05 05:57:27;;;;;;;11.40;5.23;;;;;;;;;;5113682;28;20210;-79
2024/01/05 05:59:54;;;;;;;10.50;5.40;;;;;;;;;;5112812;28;20378;-79
2024/01/05 06:02:22;;;;;;;10.13;5.67;;;;;;;;;;5113519;28;20274;-79
2024/01/05 06:04:49;;;;;;;11.20;6.23;;;;;;;;;;5112917;28;20229;-79
2024/01/05 06:07:17;;;;;;;11.30;6.20;;;;;;;;;;5113284;28;20224;-79
2024/01/05 06:09:45;;;;;;;10.23;5.93;;;;;;;;;;5112247;28;20591;-78
2024/01/05 06:12:12;;;;;;;11.67;6.70;;;;;;;;;;5101638;28;20201;-78
2024/01/05 06:14:40;;;;;;;10.43;6.07;;;;;;;;;;5112713;28;20201;-79
2024/01/05 06:17:07;;;;;;;10.83;6.70;;;;;;;;;;5112866;28;20293;-79
2024/01/05 06:19:34;;;;;;;10.73;7.07;;;;;;;;;;5113204;28;20232;-78
2024/01/05 06:22:01;;;;;;;14.70;7.87;;;;;;;;;;5112626;28;20201;-78
2024/01/05 06:24:30;;;;;;;18.00;8.97;;;;;;;;;;5112463;28;20604;-77
2024/01/05 06:26:57;;;;;;;16.57;9.20;;;;;;;;;;5112708;28;20274;-79
2024/01/05 06:29:24;;;;;;;17.47;9.97;;;;;;;;;;5112369;28;20285;-78
2024/01/05 06:31:51;;;;;;;20.00;11.57;;;;;;;;;;5112086;28;20733;-79
2024/01/05 06:34:18;;;;;;;16.43;9.10;;;;;;;;;;5112795;28;20198;-78
2024/01/05 06:36:45;;;;;;;14.33;8.53;;;;;;;;;;5112341;28;20643;-78
2024/01/05 06:39:12;;;;;;;12.73;7.73;;;;;;;;;;5112688;28;20764;-78
2024/01/05 06:41:41;;;;;;;15.67;7.70;;;;;;;;;;5111957;28;20288;-78
2024/01/05 06:44:08;;;;;;;12.27;7.20;;;;;;;;;;5112452;28;20745;-77
2024/01/05 06:46:35;;;;;;;14.40;7.90;;;;;;;;;;5110733;28;20336;-78
2024/01/05 06:49:03;;;;;;;15.73;8.33;;;;;;;;;;5106418;28;20372;-77
2024/01/05 06:51:30;;;;;;;11.97;8.07;;;;;;;;;;5106132;28;20297;-78
2024/01/05 06:53:58;;;;;;;15.23;8.33;;;;;;;;;;5106312;28;20223;-78
2024/01/05 06:56:27;;;;;;;14.63;8.03;;;;;;;;;;5110727;28;20186;-78
2024/01/05 06:58:56;;;;;;;11.20;7.60;;;;;;;;;;5111634;28;20189;-78
2024/01/05 07:01:23;;;;;;;12.27;7.10;;;;;;;;;;5111686;28;20284;-78
2024/01/05 07:03:50;;;;;;;9.43;6.43;;;;;;;;;;5111724;28;20194;-78
2024/01/05 07:06:17;;;;;;;12.57;6.67;;;;;;;;;;5111330;28;20322;-78
2024/01/05 07:08:45;;;;;;;9.30;6.07;;;;;;;;;;5111505;28;20289;-76
2024/01/05 07:11:20;;;;;;;12.33;5.87;;;;;;;;;;5109028;28;20674;-77
2024/01/05 07:13:47;;;;;;;7.47;5.60;;;;;;;;;;5109527;28;20765;-77
2024/01/05 07:16:18;;;;;;;10.87;5.50;;;;;;;;;;5111533;28;20196;-78
2024/01/05 07:18:46;;;;;;;11.73;5.33;;;;;;;;;;5111744;28;20225;-78
2024/01/05 07:21:13;;;;;;;12.90;6.00;;;;;;;;;;5111483;28;20193;-78
2024/01/05 07:23:40;;;;;;;9.33;5.63;;;;;;;;;;5111809;28;20193;-78
2024/01/05 07:26:08;;;;;;;10.83;5.80;;;;;;;;;;5104096;28;20289;-78
2024/01/05 07:28:35;;;;;;;10.50;6.07;;;;;;;;;;5090457;28;20741;-78
2024/01/05 07:31:05;;;;;;;12.67;6.60;;;;;;;;;;5090860;28;20632;-78
2024/01/05 07:33:33;;;;;;;7.93;6.10;;;;;;;;;;5090882;28;20198;-77
2024/01/05 07:36:04;;;;;;;7.47;5.60;;;;;;;;;;5096794;28;20749;-77
2024/01/05 07:38:32;;;;;;;8.80;5.20;;;;;;;;;;5111011;28;20204;-78
2024/01/05 07:40:59;;;;;;;11.57;5.73;;;;;;;;;;5110807;28;20232;-78
2024/01/05 07:43:27;;;;;;;11.20;6.23;;;;;;;;;;5114628;28;20288;-78
2024/01/05 07:45:54;;;;;;;9.87;6.10;;;;;;;;;;5115544;28;20316;-77
2024/01/05 07:48:22;;;;;;;11.63;6.50;;;;;;;;;;5115436;28;20241;-78
2024/01/05 07:50:51;;;;;;;10.37;6.23;;;;;;;;;;5115648;28;20571;-78
2024/01/05 07:53:18;;;;;;;11.40;6.10;;;;;;;;;;5115267;28;20195;-78
2024/01/05 07:55:45;;;;;;;14.17;6.40;;;;;;;;;;5115009;28;20300;-77
2024/01/05 07:58:12;;;;;;;12.23;6.50;;;;;;;;;;5115479;28;20729;-78
2024/01/05 08:00:39;;;;;;;12.43;7.63;;;;;;;;;;5114990;28;20688;-78
2024/01/05 08:03:07;;;;;;;11.43;7.40;;;;;;;;;;5114926;28;20659;-78
2024/01/05 08:05:34;;;;;;;10.90;6.63;;;;;;;;;;5114960;28;20276;-77
2024/01/05 08:08:02;;;;;;;9.63;6.87;;;;;;;;;;5114919;28;20217;-78
2024/01/05 08:10:30;;;;;;;11.50;7.20;;;;;;;;;;5114272;28;20293;-78
2024/01/05 08:12:57;;;;;;;17.10;9.43;;;;;;;;;;5114902;28;20219;-77
2024/01/05 08:15:24;;;;;;;12.87;8.17;;;;;;;;;;5115093;28;20197;-78
2024/01/05 08:17:51;;;;;;;11.77;7.90;;;;;;;;;;5114924;27;20208;-77
2024/01/05 08:20:18;;;;;;;14.67;8.07;;;;;;;;;;5114746;28;20217;-78
2024/01/05 08:22:46;;;;;;;12.67;8.30;;;;;;;;;;5115138;28;20225;-78
2024/01/05 08:25:15;;;;;;;12.73;8.20;;;;;;;;;;5113991;28;20722;-78
2024/01/05 08:27:43;;;;;;;10.77;7.80;;;;;;;;;;5114469;28;20233;-78
2024/01/05 08:30:12;;;;;;;11.93;7.23;;;;;;;;;;5114686;28;20292;-77
2024/01/05 08:32:39;;;;;;;14.67;8.73;;;;;;;;;;5104383;28;20286;-78
2024/01/05 08:35:07;;;;;;;19.53;10.90;;;;;;;;;;5094073;28;20195;-77
2024/01/05 08:37:34;;;;;;;16.03;10.40;;;;;;;;;;5113090;28;20233;-78
2024/01/05 08:40:02;;;;;;;20.00;9.97;;;;;;;;;;5111603;28;20202;-78
2024/01/05 08:42:30;;;;;;;19.50;9.63;;;;;;;;;;5103162;27;20732;-79
2024/01/05 08:44:58;;;;;;;19.53;9.10;;;;;;;;;;5113370;28;20288;-78
2024/01/05 08:47:25;;;;;;;18.63;9.63;;;;;;;;;;5114437;28;20592;-79
2024/01/05 08:49:52;;;;;;;19.17;9.47;;;;;;;;;;5113659;28;20198;-79
2024/01/05 08:52:19;;;;;;;19.60;8.77;;;;;;;;;;5113041;28;20290;-78
2024/01/05 08:54:46;;;;;;;12.83;6.50;;;;;;;;;;5107003;28;20286;-78
2024/01/05 08:57:13;;;;;;;12.57;4.23;;;;;;;;;;5100442;28;20201;-78
2024/01/05 08:59:43;;;;;;;6.93;3.70;;;;;;;;;;5113910;28;20229;-79
2024/01/05 09:02:10;;;;;;;8.87;3.87;;;;;;;;;;5114233;28;20198;-78
2024/01/05 09:04:37;;;;;;;8.87;5.03;;;;;;;;;;5094829;28;20243;-79
2024/01/05 09:07:05;;;;;;;11.93;6.23;;;;;;;;;;5093203;28;20326;-78
2024/01/05 09:09:32;;;;;;;14.53;8.83;;;;;;;;;;5093507;28;20548;-78
2024/01/05 09:12:00;;;;;;;11.35;7.63;;;;;;;;;;5092930;28;20204;-79
2024/01/05 09:14:27;;;;;;;11.77;7.18;;;;;;;;;;5101451;28;20204;-79
2024/01/05 09:16:55;;;;;;;12.63;8.48;;;;;;;;;;5114302;28;20284;-79
2024/01/05 09:19:22;;;;;;;10.30;7.35;;;;;;;;;;5113726;28;20398;-80
2024/01/05 09:21:50;;;;;;;7.15;5.93;;;;;;;;;;5113336;28;20201;-79
2024/01/05 09:24:17;;;;;;;6.45;4.82;;;;;;;;;;5113677;28;20228;-80
2024/01/05 09:26:46;;;;;;;7.68;4.63;;;;;;;;;;5113828;28;20224;-80
2024/01/05 09:29:13;;;;;;;5.80;3.72;;;;;;;;;;5113309;28;20613;-80
2024/01/05 09:31:45;;;;;;;5.07;3.22;;;;;;;;;;5113506;28;20811;-79
2024/01/05 09:34:14;;;;;;;6.05;3.88;;;;;;;;;;5113956;28;20273;-80
2024/01/05 09:36:42;;;;;;;6.38;3.05;;;;;;;;;;5112905;28;20285;-81
2024/01/05 09:39:09;;;;;;;4.15;3.00;;;;;;;;;;5112542;27;20198;-81
2024/01/05 09:41:36;;;;;;;5.72;3.30;;;;;;;;;;5121705;27;20229;-81
2024/01/05 09:44:04;;;;;;;6.45;3.67;;;;;;;;;;5129300;27;20200;-80
2024/01/05 09:46:31;;;;;;;6.15;3.00;;;;;;;;;;5121516;27;20216;-81
2024/01/05 09:49:01;;;;;;;5.35;3.10;;;;;;;;;;5121088;27;20681;-79
2024/01/05 09:51:31;;;;;;;4.80;3.00;;;;;;;;;;5128934;27;20223;-80
2024/01/05 09:53:59;;;;;;;5.50;3.08;;;;;;;;;;5116718;27;20193;-80
2024/01/05 09:56:27;;;;;;;7.95;4.00;;;;;;;;;;5124909;27;20208;-81
2024/01/05 09:58:54;;;;;;;5.05;2.97;;;;;;;;;;5124231;27;20288;-80
2024/01/05 10:01:23;;;;;;;8.57;4.90;;;;;;;;;;5118217;27;20292;-80
2024/01/05 10:03:54;;;;;;;7.03;4.53;;;;;;;;;;5131870;27;20193;-80
2024/01/05 10:06:21;;;;;;;11.65;4.65;;;;;;;;;;5125199;27;20729;-80
2024/01/05 10:08:52;;;;;;;8.07;3.85;;;;;;;;;;5123486;27;20292;-80
2024/01/05 10:11:28;;;;;;;7.97;4.03;;;;;;;;;;5118095;27;20346;-79
2024/01/05 10:13:56;;;;;;;8.85;3.97;;;;;;;;;;5129724;27;20204;-80
2024/01/05 10:16:27;;;;;;;5.55;3.13;;;;;;;;;;5111226;27;20280;-80
2024/01/05 10:18:54;;;;;;;4.88;2.97;;;;;;;;;;5114057;27;20313;-81
2024/01/05 10:21:24;;;;;;;5.43;2.97;;;;;;;;;;5128438;27;20205;-80
2024/01/05 10:23:55;;;;;;;5.90;2.78;;;;;;;;;;5115193;27;20198;-80
2024/01/05 10:26:22;;;;;;;7.80;2.80;;;;;;;;;;5125490;27;20205;-80
2024/01/05 10:28:49;;;;;;;4.90;3.13;;;;;;;;;;5123083;27;20276;-80
2024/01/05 10:31:17;;;;;;;4.10;2.65;;;;;;;;;;5117683;27;20290;-79
2024/01/05 10:33:51;;;;;;;5.10;2.72;;;;;;;;;;5128295;27;20201;-80
2024/01/05 10:36:21;;;;;;;5.03;2.70;;;;;;;;;;5107033;27;20193;-80
2024/01/05 10:38:48;;;;;;;5.05;2.63;;;;;;;;;;5121896;27;20224;-80
2024/01/05 10:41:18;;;;;;;5.47;2.53;;;;;;;;;;5126575;27;20311;-80
2024/01/05 10:43:46;;;;;;;5.57;2.83;;;;;;;;;;5115351;27;20285;-80
2024/01/05 10:46:14;;;;;;;4.53;3.15;;;;;;;;;;5126492;27;20194;-80
2024/01/05 10:48:42;;;;;;;5.93;3.30;;;;;;;;;;5121312;27;20319;-80
2024/01/05 10:51:09;;;;;;;10.82;4.78;;;;;;;;;;5117864;27;20229;-81
2024/01/05 10:53:37;;;;;;;9.68;3.63;;;;;;;;;;5128394;27;20219;-80
2024/01/05 10:56:07;;;;;;;5.50;2.97;;;;;;;;;;5112733;27;20189;-79
2024/01/05 10:58:36;;;;;;;8.00;3.83;;;;;;;;;;5112445;27;20288;-80
2024/01/05 11:01:03;;;;;;;6.10;3.60;;;;;;;;;;5111314;27;20268;-79
2024/01/05 11:03:38;;;;;;;9.38;5.15;;;;;;;;;;5111333;28;20198;-80
2024/01/05 11:06:08;;;;;;;4.90;2.70;;;;;;;;;;5108863;28;20193;-80
2024/01/05 11:08:40;;;;;;;9.15;3.60;;;;;;;;;;5115038;27;20278;-79
2024/01/05 11:11:11;;;;;;;9.73;2.95;;;;;;;;;;5116649;27;20194;-80
2024/01/05 11:14:03;;;;;;;8.07;2.70;;;;;;;;;;5131558;27;20189;-81
2024/01/05 11:16:50;;;;;;;6.22;2.88;;;;;;;;;;5113093;27;20221;-80
2024/01/05 11:19:25;;;;;;;6.97;2.53;;;;;;;;;;5070563;28;20194;-80
2024/01/05 11:21:55;;;;;;;6.85;3.08;;;;;;;;;;5075845;28;20228;-80
2024/01/05 11:24:23;;;;;;;7.70;2.10;;;;;;;;;;5077423;28;20695;-80
2024/01/05 11:26:50;;;;;;;5.28;2.50;;;;;;;;;;5072551;28;20679;-80
2024/01/05 11:29:48;;;;;;;6.85;2.33;;;;;;;;;;5077832;28;20293;-80
2024/01/05 11:32:30;;;;;;;7.38;2.47;;;;;;;;;;5072420;28;20195;-81
2024/01/05 11:34:57;;;;;;;6.80;2.17;;;;;;;;;;5062807;28;20306;-81
2024/01/05 11:37:29;;;;;;;6.50;2.90;;;;;;;;;;5074207;28;20640;-81
2024/01/05 11:39:56;;;;;;;7.82;3.15;;;;;;;;;;5066713;28;20199;-80
2024/01/05 11:42:31;;;;;;;5.72;3.22;;;;;;;;;;5059524;28;20201;-81
2024/01/05 11:45:00;;;;;;;6.10;3.10;;;;;;;;;;5054253;28;20199;-80
2024/01/05 11:47:40;;;;;;;6.32;2.65;;;;;;;;;;5057138;28;20215;-81
2024/01/05 11:50:22;;;;;;;5.63;2.03;;;;;;;;;;5047064;28;20195;-80
2024/01/05 11:52:49;;;;;;;3.78;1.95;;;;;;;;;;5052389;28;20589;-80
2024/01/05 11:55:16;;;;;;;4.50;1.90;;;;;;;;;;5058358;28;20188;-80
2024/01/05 11:57:44;;;;;;;4.45;1.98;;;;;;;;;;5108427;28;20202;-79
2024/01/05 12:00:15;;;;;;;4.65;1.83;;;;;;;;;;5107930;28;20229;-79
2024/01/05 12:02:42;;;;;;;6.05;1.83;;;;;;;;;;5090251;28;20750;-80
2024/01/05 12:05:09;;;;;;;3.85;1.90;;;;;;;;;;5110587;27;20304;-80
2024/01/05 12:07:36;;;;;;;6.10;1.50;;;;;;;;;;5114650;28;20653;-79
2024/01/05 12:10:03;;;;;;;4.43;1.88;;;;;;;;;;5116537;28;20644;-78
2024/01/05 12:12:30;;;;;;;4.75;1.80;;;;;;;;;;5118831;28;20276;-79
2024/01/05 12:15:08;;;;;;;6.15;1.90;;;;;;;;;;5121523;28;20229;-78
2024/01/05 12:17:37;;;;;;;5.93;1.85;;;;;;;;;;5121814;28;20692;-80
2024/01/05 12:20:10;;;;;;;5.22;1.92;;;;;;;;;;5121421;28;20721;-79
2024/01/05 12:22:37;;;;;;;4.78;1.77;;;;;;;;;;5110903;28;20201;-80
2024/01/05 12:25:05;;;;;;;5.13;1.90;;;;;;;;;;5109384;28;20237;-80
2024/01/05 12:27:36;;;;;;;7.20;1.80;;;;;;;;;;5119926;27;20251;-80
2024/01/05 12:30:04;;;;;;;5.57;1.88;;;;;;;;;;5133569;27;20193;-79
2024/01/05 12:32:33;;;;;;;4.18;1.50;;;;;;;;;;5114972;28;20228;-78
2024/01/05 12:35:01;;;;;;;3.92;1.30;;;;;;;;;;5099910;27;20201;-81
2024/01/05 12:37:29;;;;;;;3.13;1.30;;;;;;;;;;5129040;27;20201;-79
2024/01/05 12:39:56;;;;;;;5.57;1.48;;;;;;;;;;5124453;27;20212;-78
2024/01/05 12:42:23;;;;;;;4.70;1.17;;;;;;;;;;5114361;27;20274;-79
2024/01/05 12:44:51;;;;;;;5.20;1.83;;;;;;;;;;5130171;27;20189;-81
2024/01/05 12:47:28;;;;;;;4.15;1.60;;;;;;;;;;5117171;27;20268;-80
2024/01/05 12:49:56;;;;;;;4.53;1.50;;;;;;;;;;5134530;27;20201;-80
2024/01/05 12:52:35;;;;;;;5.78;1.20;;;;;;;;;;5119624;27;20204;-81
2024/01/05 12:55:03;;;;;;;3.47;1.20;;;;;;;;;;5112487;28;20733;-80
2024/01/05 12:57:31;;;;;;;4.32;1.70;;;;;;;;;;5105569;28;20206;-80
2024/01/05 13:00:05;;;;;;;3.90;1.20;;;;;;;;;;5110999;27;20228;-83
2024/01/05 13:02:39;;;;;;;5.97;1.63;;;;;;;;;;5106059;28;20289;-81
2024/01/05 13:05:20;;;;;;;4.90;1.45;;;;;;;;;;5106781;28;20197;-82
2024/01/05 13:07:49;;;;;;;5.40;1.55;;;;;;;;;;5110334;28;20617;-82
2024/01/05 13:10:16;;;;;;;5.47;1.27;;;;;;;;;;5112269;28;20194;-83
2024/01/05 13:12:46;;;;;;;4.65;1.05;;;;;;;;;;5111393;28;20252;-81
2024/01/05 13:15:13;;;;;;;2.95;1.10;;;;;;;;;;5110400;28;20907;-81
2024/01/05 13:17:43;;;;;;;5.70;1.35;;;;;;;;;;5115357;27;20251;-80
2024/01/05 13:20:11;;;;;;;3.22;1.40;;;;;;;;;;5110994;28;20589;-81
2024/01/05 13:22:38;;;;;;;4.78;1.17;;;;;;;;;;5116274;27;20224;-80
2024/01/05 13:25:07;;;;;;;4.32;1.30;;;;;;;;;;5127967;27;20228;-82
2024/01/05 13:27:35;;;;;;;4.90;1.35;;;;;;;;;;5121715;27;20657;-82
2024/01/05 13:30:03;;;;;;;3.88;1.20;;;;;;;;;;5103174;28;20688;-82
2024/01/05 13:32:30;;;;;;;4.05;1.02;;;;;;;;;;5113181;28;20570;-82
2024/01/05 13:34:57;;;;;;;6.22;1.40;;;;;;;;;;5113673;27;20297;-81
2024/01/05 13:37:25;;;;;;;6.13;1.35;;;;;;;;;;5113617;28;20204;-82
2024/01/05 13:39:53;;;;;;;5.60;1.42;;;;;;;;;;5112489;28;20198;-83
2024/01/05 13:42:21;;;;;;;6.68;1.73;;;;;;;;;;5101131;27;20637;-82
2024/01/05 13:44:49;;;;;;;6.85;1.60;;;;;;;;;;5116894;27;20247;-81
2024/01/05 13:47:16;;;;;;;4.05;1.45;;;;;;;;;;5129249;27;20253;-81
2024/01/05 13:49:43;;;;;;;2.78;1.02;;;;;;;;;;5103766;27;20657;-82
2024/01/05 13:52:10;;;;;;;4.60;0.95;;;;;;;;;;5111313;27;20208;-82
2024/01/05 13:54:37;;;;;;;2.90;1.00;;;;;;;;;;5111211;28;20205;-82
2024/01/05 13:57:05;;;;;;;4.82;1.08;;;;;;;;;;5107710;28;20313;-81
2024/01/05 13:59:34;;;;;;;2.25;0.80;;;;;;;;;;5112408;28;20328;-81
2024/01/05 14:02:02;;;;;;;3.65;1.20;;;;;;;;;;5113388;28;20198;-82
2024/01/05 14:04:30;;;;;;;3.58;1.60;;;;;;;;;;5111196;28;20293;-82
2024/01/05 14:06:57;;;;;;;6.38;1.65;;;;;;;;;;5111700;28;20727;-82
2024/01/05 14:09:25;;;;;;;4.22;1.65;;;;;;;;;;5112985;28;20324;-81
2024/01/05 14:11:52;;;;;;;5.22;1.15;;;;;;;;;;5113272;28;20555;-83
2024/01/05 14:14:19;;;;;;;3.95;1.00;;;;;;;;;;5111715;28;20194;-81
2024/01/05 14:16:51;;;;;;;2.50;0.95;;;;;;;;;;5107946;28;20288;-81
2024/01/05 14:19:19;;;;;;;2.72;1.00;;;;;;;;;;5108199;27;20342;-82
2024/01/05 14:21:46;;;;;;;5.40;1.27;;;;;;;;;;5107565;27;20276;-82
2024/01/05 14:24:13;;;;;;;4.72;0.95;;;;;;;;;;5120756;27;20197;-82
2024/01/05 14:26:40;;;;;;;3.80;1.00;;;;;;;;;;5099910;27;20288;-83
2024/01/05 14:29:08;;;;;;;3.80;1.25;;;;;;;;;;5122057;27;20588;-82
2024/01/05 14:31:35;;;;;;;4.50;1.10;;;;;;;;;;5105985;27;20665;-82
2024/01/05 14:34:04;;;;;;;3.90;0.98;;;;;;;;;;5127092;27;20285;-81
2024/01/05 14:36:30;;;;;;;6.80;0.90;;;;;;;;;;5110948;27;20250;-82
2024/01/05 14:38:58;;;;;;;3.85;1.00;;;;;;;;;;5119026;27;20193;-82
2024/01/05 14:41:25;;;;;;;2.88;1.08;;;;;;;;;;5112261;27;20205;-81
2024/01/05 14:43:53;;;;;;;4.33;0.90;;;;;;;;;;5129395;27;20242;-82